sensor_id;sensor_type;location;lat;lon;timestamp;temperature;humidity
18073;DHT22;9161;47.348;9.648;2022-08-16T00:01:24;15.60;99.90
18073;DHT22;9161;47.348;9.648;2022-08-16T00:06:15;15.90;99.90
18073;DHT22;9161;47.348;9.648;2022-08-16T00:11:00;16.40;99.90
18073;DHT22;9161;47.348;9.648;2022-08-16T00:15:46;16.60;99.90
18073;DHT22;9161;47.348;9.648;2022-08-16T00:20:35;16.30;99.90
18073;DHT22;9161;47.348;9.648;2022-08-16T00:25:23;16.10;99.90
18073;DHT22;9161;47.348;9.648;2022-08-16T00:30:29;15.90;99.90
18073;DHT22;9161;47.348;9.648;2022-08-16T00:35:14;15.90;99.90
18073;DHT22;9161;47.348;9.648;2022-08-16T00:39:58;15.90;99.90
18073;DHT22;9161;47.348;9.648;2022-08-16T00:44:45;15.90;99.90
18073;DHT22;9161;47.348;9.648;2022-08-16T00:49:37;15.90;99.90
18073;DHT22;9161;47.348;9.648;2022-08-16T00:54:37;16.00;99.90
18073;DHT22;9161;47.348;9.648;2022-08-16T00:59:25;15.90;99.90
18073;DHT22;9161;47.348;9.648;2022-08-16T01:04:10;15.90;99.90
18073;DHT22;9161;47.348;9.648;2022-08-16T01:09:13;16.40;99.90
18073;DHT22;9161;47.348;9.648;2022-08-16T01:14:06;16.60;99.90
18073;DHT22;9161;47.348;9.648;2022-08-16T01:18:56;16.70;99.90
18073;DHT22;9161;47.348;9.648;2022-08-16T01:24:01;16.70;99.90
18073;DHT22;9161;47.348;9.648;2022-08-16T01:29:10;16.80;99.90
18073;DHT22;9161;47.348;9.648;2022-08-16T01:33:56;16.40;99.90
18073;DHT22;9161;47.348;9.648;2022-08-16T01:38:41;16.10;99.90
18073;DHT22;9161;47.348;9.648;2022-08-16T01:43:37;15.90;99.90
18073;DHT22;9161;47.348;9.648;2022-08-16T01:48:25;15.70;99.90
18073;DHT22;9161;47.348;9.648;2022-08-16T01:53:09;15.70;99.90
18073;DHT22;9161;47.348;9.648;2022-08-16T01:57:53;15.50;99.90
18073;DHT22;9161;47.348;9.648;2022-08-16T02:02:42;15.40;99.90
18073;DHT22;9161;47.348;9.648;2022-08-16T02:07:33;15.30;99.90
18073;DHT22;9161;47.348;9.648;2022-08-16T02:12:16;15.40;99.90
18073;DHT22;9161;47.348;9.648;2022-08-16T02:17:20;15.30;99.90
18073;DHT22;9161;47.348;9.648;2022-08-16T02:22:06;15.20;99.90
18073;DHT22;9161;47.348;9.648;2022-08-16T02:27:11;15.10;99.90
18073;DHT22;9161;47.348;9.648;2022-08-16T02:31:55;15.10;99.90
18073;DHT22;9161;47.348;9.648;2022-08-16T02:36:59;15.10;99.90
18073;DHT22;9161;47.348;9.648;2022-08-16T02:41:46;15.00;99.90
18073;DHT22;9161;47.348;9.648;2022-08-16T02:46:34;14.90;99.90
18073;DHT22;9161;47.348;9.648;2022-08-16T02:51:19;15.00;99.90
18073;DHT22;9161;47.348;9.648;2022-08-16T02:56:04;15.00;99.90
18073;DHT22;9161;47.348;9.648;2022-08-16T03:00:53;14.90;99.90
18073;DHT22;9161;47.348;9.648;2022-08-16T03:05:38;14.70;99.90
18073;DHT22;9161;47.348;9.648;2022-08-16T03:10:23;14.50;99.90
18073;DHT22;9161;47.348;9.648;2022-08-16T03:15:16;14.50;99.90
18073;DHT22;9161;47.348;9.648;2022-08-16T03:20:04;14.40;99.90
18073;DHT22;9161;47.348;9.648;2022-08-16T03:24:52;14.40;99.90
18073;DHT22;9161;47.348;9.648;2022-08-16T03:29:38;14.40;99.90
18073;DHT22;9161;47.348;9.648;2022-08-16T03:34:35;14.40;99.90
18073;DHT22;9161;47.348;9.648;2022-08-16T03:39:21;14.30;99.90
18073;DHT22;9161;47.348;9.648;2022-08-16T03:44:04;14.20;99.90
18073;DHT22;9161;47.348;9.648;2022-08-16T03:48:51;14.30;99.90
18073;DHT22;9161;47.348;9.648;2022-08-16T03:53:37;14.20;99.90
18073;DHT22;9161;47.348;9.648;2022-08-16T03:58:23;14.60;99.90
18073;DHT22;9161;47.348;9.648;2022-08-16T04:03:08;14.70;99.90
18073;DHT22;9161;47.348;9.648;2022-08-16T04:07:52;14.90;99.90
18073;DHT22;9161;47.348;9.648;2022-08-16T04:12:36;14.80;99.90
18073;DHT22;9161;47.348;9.648;2022-08-16T04:17:37;14.50;99.90
18073;DHT22;9161;47.348;9.648;2022-08-16T04:22:22;14.50;99.90
18073;DHT22;9161;47.348;9.648;2022-08-16T04:27:08;14.40;99.90
18073;DHT22;9161;47.348;9.648;2022-08-16T04:31:53;14.40;99.90
18073;DHT22;9161;47.348;9.648;2022-08-16T04:36:40;14.30;99.90
18073;DHT22;9161;47.348;9.648;2022-08-16T04:41:30;14.30;99.90
18073;DHT22;9161;47.348;9.648;2022-08-16T04:46:18;14.20;99.90
18073;DHT22;9161;47.348;9.648;2022-08-16T04:51:22;14.40;99.90
18073;DHT22;9161;47.348;9.648;2022-08-16T04:56:08;14.50;99.90
18073;DHT22;9161;47.348;9.648;2022-08-16T05:00:52;14.60;99.90
18073;DHT22;9161;47.348;9.648;2022-08-16T05:05:38;14.60;99.90
18073;DHT22;9161;47.348;9.648;2022-08-16T05:10:40;14.70;99.90
18073;DHT22;9161;47.348;9.648;2022-08-16T05:15:25;15.00;99.90
18073;DHT22;9161;47.348;9.648;2022-08-16T05:20:14;15.40;99.90
18073;DHT22;9161;47.348;9.648;2022-08-16T05:25:19;15.60;99.90
18073;DHT22;9161;47.348;9.648;2022-08-16T05:30:22;16.00;99.90
18073;DHT22;9161;47.348;9.648;2022-08-16T05:35:19;16.10;99.90
18073;DHT22;9161;47.348;9.648;2022-08-16T05:40:07;16.10;99.90
18073;DHT22;9161;47.348;9.648;2022-08-16T05:44:54;16.20;99.90
18073;DHT22;9161;47.348;9.648;2022-08-16T05:49:39;16.50;99.90
18073;DHT22;9161;47.348;9.648;2022-08-16T05:54:25;16.80;99.90
18073;DHT22;9161;47.348;9.648;2022-08-16T05:59:10;17.20;99.90
18073;DHT22;9161;47.348;9.648;2022-08-16T06:03:55;17.50;99.90
18073;DHT22;9161;47.348;9.648;2022-08-16T06:08:40;17.80;99.90
18073;DHT22;9161;47.348;9.648;2022-08-16T06:13:29;18.20;99.90
18073;DHT22;9161;47.348;9.648;2022-08-16T06:18:13;18.50;99.90
18073;DHT22;9161;47.348;9.648;2022-08-16T06:22:58;18.60;99.90
18073;DHT22;9161;47.348;9.648;2022-08-16T06:27:45;19.00;99.90
18073;DHT22;9161;47.348;9.648;2022-08-16T06:32:40;19.40;99.90
18073;DHT22;9161;47.348;9.648;2022-08-16T06:37:29;19.60;99.90
18073;DHT22;9161;47.348;9.648;2022-08-16T06:42:18;19.80;99.90
18073;DHT22;9161;47.348;9.648;2022-08-16T06:47:02;20.00;99.90
18073;DHT22;9161;47.348;9.648;2022-08-16T06:51:47;20.00;99.90
18073;DHT22;9161;47.348;9.648;2022-08-16T06:56:34;20.20;99.90
18073;DHT22;9161;47.348;9.648;2022-08-16T07:01:18;20.40;99.90
18073;DHT22;9161;47.348;9.648;2022-08-16T07:06:22;20.40;99.90
18073;DHT22;9161;47.348;9.648;2022-08-16T07:11:09;20.60;99.90
18073;DHT22;9161;47.348;9.648;2022-08-16T07:15:57;21.20;99.90
18073;DHT22;9161;47.348;9.648;2022-08-16T07:20:41;21.40;99.90
18073;DHT22;9161;47.348;9.648;2022-08-16T07:25:29;21.20;99.90
18073;DHT22;9161;47.348;9.648;2022-08-16T07:30:16;21.30;99.90
18073;DHT22;9161;47.348;9.648;2022-08-16T07:35:20;21.70;99.90
18073;DHT22;9161;47.348;9.648;2022-08-16T07:40:05;22.00;99.90
18073;DHT22;9161;47.348;9.648;2022-08-16T07:44:53;22.60;99.90
18073;DHT22;9161;47.348;9.648;2022-08-16T07:49:39;22.70;99.90
18073;DHT22;9161;47.348;9.648;2022-08-16T07:54:34;23.20;99.90
18073;DHT22;9161;47.348;9.648;2022-08-16T07:59:26;23.30;99.90
18073;DHT22;9161;47.348;9.648;2022-08-16T08:04:27;23.30;99.90
18073;DHT22;9161;47.348;9.648;2022-08-16T08:09:16;23.60;99.90
18073;DHT22;9161;47.348;9.648;2022-08-16T08:14:01;23.50;99.90
18073;DHT22;9161;47.348;9.648;2022-08-16T08:18:48;24.20;99.90
18073;DHT22;9161;47.348;9.648;2022-08-16T08:23:42;24.50;99.90
18073;DHT22;9161;47.348;9.648;2022-08-16T08:28:27;25.00;99.90
18073;DHT22;9161;47.348;9.648;2022-08-16T08:33:13;25.00;99.90
18073;DHT22;9161;47.348;9.648;2022-08-16T08:37:58;25.30;99.90
18073;DHT22;9161;47.348;9.648;2022-08-16T08:42:42;25.00;99.90
18073;DHT22;9161;47.348;9.648;2022-08-16T08:47:32;25.30;99.90
18073;DHT22;9161;47.348;9.648;2022-08-16T08:52:16;26.10;99.90
18073;DHT22;9161;47.348;9.648;2022-08-16T08:57:18;26.50;99.90
18073;DHT22;9161;47.348;9.648;2022-08-16T09:02:05;25.60;99.90
18073;DHT22;9161;47.348;9.648;2022-08-16T09:06:54;26.10;99.90
18073;DHT22;9161;47.348;9.648;2022-08-16T09:11:42;26.40;99.90
18073;DHT22;9161;47.348;9.648;2022-08-16T09:16:33;27.00;99.90
18073;DHT22;9161;47.348;9.648;2022-08-16T09:21:37;26.70;99.90
18073;DHT22;9161;47.348;9.648;2022-08-16T09:26:24;27.50;99.90
18073;DHT22;9161;47.348;9.648;2022-08-16T09:31:27;28.00;99.90
18073;DHT22;9161;47.348;9.648;2022-08-16T09:36:11;28.60;99.90
18073;DHT22;9161;47.348;9.648;2022-08-16T09:41:13;28.90;99.90
18073;DHT22;9161;47.348;9.648;2022-08-16T09:46:00;28.90;99.90
18073;DHT22;9161;47.348;9.648;2022-08-16T09:51:05;29.30;99.90
18073;DHT22;9161;47.348;9.648;2022-08-16T09:55:56;29.80;99.90
18073;DHT22;9161;47.348;9.648;2022-08-16T10:01:06;30.40;99.90
18073;DHT22;9161;47.348;9.648;2022-08-16T10:05:52;30.60;99.90
18073;DHT22;9161;47.348;9.648;2022-08-16T10:10:36;30.30;99.90
18073;DHT22;9161;47.348;9.648;2022-08-16T10:15:23;30.60;96.50
18073;DHT22;9161;47.348;9.648;2022-08-16T10:20:13;31.10;99.20
18073;DHT22;9161;47.348;9.648;2022-08-16T10:24:59;31.30;98.30
18073;DHT22;9161;47.348;9.648;2022-08-16T10:29:44;31.30;99.90
18073;DHT22;9161;47.348;9.648;2022-08-16T10:34:40;31.90;98.90
18073;DHT22;9161;47.348;9.648;2022-08-16T10:39:27;32.30;98.00
18073;DHT22;9161;47.348;9.648;2022-08-16T10:44:23;32.80;96.90
18073;DHT22;9161;47.348;9.648;2022-08-16T10:49:07;32.60;95.00
18073;DHT22;9161;47.348;9.648;2022-08-16T10:53:51;33.00;96.50
18073;DHT22;9161;47.348;9.648;2022-08-16T10:58:39;32.40;96.60
18073;DHT22;9161;47.348;9.648;2022-08-16T11:03:25;31.80;94.50
18073;DHT22;9161;47.348;9.648;2022-08-16T11:08:27;32.10;96.70
18073;DHT22;9161;47.348;9.648;2022-08-16T11:13:19;32.30;96.00
18073;DHT22;9161;47.348;9.648;2022-08-16T11:18:26;33.40;94.70
18073;DHT22;9161;47.348;9.648;2022-08-16T11:23:31;33.60;95.00
18073;DHT22;9161;47.348;9.648;2022-08-16T11:28:16;33.70;92.00
18073;DHT22;9161;47.348;9.648;2022-08-16T11:33:19;34.20;91.70
18073;DHT22;9161;47.348;9.648;2022-08-16T11:38:24;34.40;90.50
18073;DHT22;9161;47.348;9.648;2022-08-16T11:43:29;34.80;92.20
18073;DHT22;9161;47.348;9.648;2022-08-16T11:48:15;35.20;92.90
18073;DHT22;9161;47.348;9.648;2022-08-16T11:53:01;36.00;91.60
18073;DHT22;9161;47.348;9.648;2022-08-16T11:57:46;35.70;91.60
18073;DHT22;9161;47.348;9.648;2022-08-16T12:02:37;35.90;88.70
18073;DHT22;9161;47.348;9.648;2022-08-16T12:07:29;34.90;91.60
18073;DHT22;9161;47.348;9.648;2022-08-16T12:12:14;35.20;90.60
18073;DHT22;9161;47.348;9.648;2022-08-16T12:17:02;35.10;86.80
18073;DHT22;9161;47.348;9.648;2022-08-16T12:21:46;35.50;87.80
18073;DHT22;9161;47.348;9.648;2022-08-16T12:26:40;36.10;85.50
18073;DHT22;9161;47.348;9.648;2022-08-16T12:31:24;36.60;80.30
18073;DHT22;9161;47.348;9.648;2022-08-16T12:36:11;36.60;84.40
18073;DHT22;9161;47.348;9.648;2022-08-16T12:40:55;36.90;80.70
18073;DHT22;9161;47.348;9.648;2022-08-16T12:45:45;37.30;79.00
18073;DHT22;9161;47.348;9.648;2022-08-16T12:50:29;38.00;77.60
18073;DHT22;9161;47.348;9.648;2022-08-16T12:55:16;37.90;75.10
18073;DHT22;9161;47.348;9.648;2022-08-16T13:00:00;37.90;71.60
18073;DHT22;9161;47.348;9.648;2022-08-16T13:04:44;37.90;72.90
18073;DHT22;9161;47.348;9.648;2022-08-16T13:09:31;38.00;70.80
18073;DHT22;9161;47.348;9.648;2022-08-16T13:14:25;37.90;70.00
18073;DHT22;9161;47.348;9.648;2022-08-16T13:19:14;38.30;66.50
18073;DHT22;9161;47.348;9.648;2022-08-16T13:23:58;38.30;67.50
18073;DHT22;9161;47.348;9.648;2022-08-16T13:28:45;39.20;67.00
18073;DHT22;9161;47.348;9.648;2022-08-16T13:33:32;39.60;65.40
18073;DHT22;9161;47.348;9.648;2022-08-16T13:38:18;38.90;63.40
18073;DHT22;9161;47.348;9.648;2022-08-16T13:43:06;39.30;65.00
18073;DHT22;9161;47.348;9.648;2022-08-16T13:47:52;39.30;63.60
18073;DHT22;9161;47.348;9.648;2022-08-16T13:52:38;39.20;61.40
18073;DHT22;9161;47.348;9.648;2022-08-16T13:57:22;38.90;61.30
18073;DHT22;9161;47.348;9.648;2022-08-16T14:02:26;38.70;62.40
18073;DHT22;9161;47.348;9.648;2022-08-16T14:07:12;38.60;59.40
18073;DHT22;9161;47.348;9.648;2022-08-16T14:12:17;39.10;59.90
18073;DHT22;9161;47.348;9.648;2022-08-16T14:17:02;39.40;58.70
18073;DHT22;9161;47.348;9.648;2022-08-16T14:21:50;39.80;57.40
18073;DHT22;9161;47.348;9.648;2022-08-16T14:26:55;39.60;58.10
18073;DHT22;9161;47.348;9.648;2022-08-16T14:31:41;39.50;57.60
18073;DHT22;9161;47.348;9.648;2022-08-16T14:36:25;39.60;57.00
18073;DHT22;9161;47.348;9.648;2022-08-16T14:41:11;39.40;56.10
18073;DHT22;9161;47.348;9.648;2022-08-16T14:45:55;39.30;56.20
18073;DHT22;9161;47.348;9.648;2022-08-16T14:50:40;39.40;56.60
18073;DHT22;9161;47.348;9.648;2022-08-16T14:55:25;38.20;56.40
18073;DHT22;9161;47.348;9.648;2022-08-16T15:00:12;38.50;57.00
18073;DHT22;9161;47.348;9.648;2022-08-16T15:04:59;38.00;58.40
18073;DHT22;9161;47.348;9.648;2022-08-16T15:09:46;37.40;56.60
18073;DHT22;9161;47.348;9.648;2022-08-16T15:14:43;36.80;56.10
18073;DHT22;9161;47.348;9.648;2022-08-16T15:19:30;36.00;57.10
18073;DHT22;9161;47.348;9.648;2022-08-16T15:24:13;35.70;56.50
18073;DHT22;9161;47.348;9.648;2022-08-16T15:29:05;35.50;58.00
18073;DHT22;9161;47.348;9.648;2022-08-16T15:33:51;34.50;59.30
18073;DHT22;9161;47.348;9.648;2022-08-16T15:38:39;35.30;60.60
18073;DHT22;9161;47.348;9.648;2022-08-16T15:43:43;34.50;59.30
18073;DHT22;9161;47.348;9.648;2022-08-16T15:48:28;34.10;59.80
18073;DHT22;9161;47.348;9.648;2022-08-16T15:53:14;34.00;60.70
18073;DHT22;9161;47.348;9.648;2022-08-16T15:57:58;33.30;58.80
18073;DHT22;9161;47.348;9.648;2022-08-16T16:03:06;34.00;61.60
18073;DHT22;9161;47.348;9.648;2022-08-16T16:07:53;33.40;59.90
18073;DHT22;9161;47.348;9.648;2022-08-16T16:12:52;33.00;61.70
18073;DHT22;9161;47.348;9.648;2022-08-16T16:17:36;33.10;61.30
18073;DHT22;9161;47.348;9.648;2022-08-16T16:22:20;32.70;63.30
18073;DHT22;9161;47.348;9.648;2022-08-16T16:27:09;32.40;63.40
18073;DHT22;9161;47.348;9.648;2022-08-16T16:31:53;32.20;62.90
18073;DHT22;9161;47.348;9.648;2022-08-16T16:36:40;32.30;65.60
18073;DHT22;9161;47.348;9.648;2022-08-16T16:41:29;32.70;66.20
18073;DHT22;9161;47.348;9.648;2022-08-16T16:46:17;32.40;65.00
18073;DHT22;9161;47.348;9.648;2022-08-16T16:51:22;31.90;65.50
18073;DHT22;9161;47.348;9.648;2022-08-16T16:56:09;31.90;66.50
18073;DHT22;9161;47.348;9.648;2022-08-16T17:01:08;32.20;67.00
18073;DHT22;9161;47.348;9.648;2022-08-16T17:05:54;32.00;67.50
18073;DHT22;9161;47.348;9.648;2022-08-16T17:10:50;31.90;68.70
18073;DHT22;9161;47.348;9.648;2022-08-16T17:15:34;31.40;69.00
18073;DHT22;9161;47.348;9.648;2022-08-16T17:20:18;31.30;71.00
18073;DHT22;9161;47.348;9.648;2022-08-16T17:25:09;30.80;70.60
18073;DHT22;9161;47.348;9.648;2022-08-16T17:29:54;30.70;70.60
18073;DHT22;9161;47.348;9.648;2022-08-16T17:34:38;30.30;71.60
18073;DHT22;9161;47.348;9.648;2022-08-16T17:39:27;29.50;73.20
18073;DHT22;9161;47.348;9.648;2022-08-16T17:44:13;28.90;72.30
18073;DHT22;9161;47.348;9.648;2022-08-16T17:49:00;28.20;75.30
18073;DHT22;9161;47.348;9.648;2022-08-16T17:53:44;27.60;73.40
18073;DHT22;9161;47.348;9.648;2022-08-16T17:58:32;27.00;76.20
18073;DHT22;9161;47.348;9.648;2022-08-16T18:03:19;26.50;77.50
18073;DHT22;9161;47.348;9.648;2022-08-16T18:08:25;26.00;77.20
18073;DHT22;9161;47.348;9.648;2022-08-16T18:13:11;25.50;81.90
18073;DHT22;9161;47.348;9.648;2022-08-16T18:17:56;25.30;86.10
18073;DHT22;9161;47.348;9.648;2022-08-16T18:22:42;25.00;86.90
18073;DHT22;9161;47.348;9.648;2022-08-16T18:27:26;24.80;86.40
18073;DHT22;9161;47.348;9.648;2022-08-16T18:32:14;24.50;87.30
18073;DHT22;9161;47.348;9.648;2022-08-16T18:37:05;24.20;88.60
18073;DHT22;9161;47.348;9.648;2022-08-16T18:41:50;23.90;91.00
18073;DHT22;9161;47.348;9.648;2022-08-16T18:46:34;23.60;91.80
18073;DHT22;9161;47.348;9.648;2022-08-16T18:51:18;23.40;92.80
18073;DHT22;9161;47.348;9.648;2022-08-16T18:56:06;23.10;92.70
18073;DHT22;9161;47.348;9.648;2022-08-16T19:00:53;22.70;92.90
18073;DHT22;9161;47.348;9.648;2022-08-16T19:05:41;22.60;93.20
18073;DHT22;9161;47.348;9.648;2022-08-16T19:10:25;22.40;94.10
18073;DHT22;9161;47.348;9.648;2022-08-16T19:15:13;22.30;94.60
18073;DHT22;9161;47.348;9.648;2022-08-16T19:19:59;22.40;94.40
18073;DHT22;9161;47.348;9.648;2022-08-16T19:24:49;22.30;95.00
18073;DHT22;9161;47.348;9.648;2022-08-16T19:29:34;22.30;95.70
18073;DHT22;9161;47.348;9.648;2022-08-16T19:34:20;22.10;96.50
18073;DHT22;9161;47.348;9.648;2022-08-16T19:39:10;22.10;96.30
18073;DHT22;9161;47.348;9.648;2022-08-16T19:43:56;21.90;96.90
18073;DHT22;9161;47.348;9.648;2022-08-16T19:48:47;21.90;97.60
18073;DHT22;9161;47.348;9.648;2022-08-16T19:53:33;21.90;97.70
18073;DHT22;9161;47.348;9.648;2022-08-16T19:58:19;21.60;98.40
18073;DHT22;9161;47.348;9.648;2022-08-16T20:03:10;21.50;98.40
18073;DHT22;9161;47.348;9.648;2022-08-16T20:07:56;21.40;98.10
18073;DHT22;9161;47.348;9.648;2022-08-16T20:12:46;21.30;98.20
18073;DHT22;9161;47.348;9.648;2022-08-16T20:17:45;21.20;98.90
18073;DHT22;9161;47.348;9.648;2022-08-16T20:22:32;21.20;98.30
18073;DHT22;9161;47.348;9.648;2022-08-16T20:27:34;21.20;98.50
18073;DHT22;9161;47.348;9.648;2022-08-16T20:32:21;21.00;98.70
18073;DHT22;9161;47.348;9.648;2022-08-16T20:37:19;20.90;98.30
18073;DHT22;9161;47.348;9.648;2022-08-16T20:42:03;20.80;98.60
18073;DHT22;9161;47.348;9.648;2022-08-16T20:46:47;20.80;99.00
18073;DHT22;9161;47.348;9.648;2022-08-16T20:51:32;20.80;99.00
18073;DHT22;9161;47.348;9.648;2022-08-16T20:56:32;20.60;99.50
18073;DHT22;9161;47.348;9.648;2022-08-16T21:01:16;20.60;99.70
18073;DHT22;9161;47.348;9.648;2022-08-16T21:06:04;20.80;98.40
18073;DHT22;9161;47.348;9.648;2022-08-16T21:10:48;20.60;99.00
18073;DHT22;9161;47.348;9.648;2022-08-16T21:15:33;20.40;99.70
18073;DHT22;9161;47.348;9.648;2022-08-16T21:20:19;20.20;99.90
18073;DHT22;9161;47.348;9.648;2022-08-16T21:25:04;20.00;99.90
18073;DHT22;9161;47.348;9.648;2022-08-16T21:29:49;20.10;99.90
18073;DHT22;9161;47.348;9.648;2022-08-16T21:34:38;20.10;99.90
18073;DHT22;9161;47.348;9.648;2022-08-16T21:39:22;19.80;99.90
18073;DHT22;9161;47.348;9.648;2022-08-16T21:44:06;19.70;99.90
18073;DHT22;9161;47.348;9.648;2022-08-16T21:48:50;19.60;99.90
18073;DHT22;9161;47.348;9.648;2022-08-16T21:53:36;19.50;99.90
18073;DHT22;9161;47.348;9.648;2022-08-16T21:58:20;19.40;99.90
18073;DHT22;9161;47.348;9.648;2022-08-16T22:03:06;19.20;99.90
18073;DHT22;9161;47.348;9.648;2022-08-16T22:07:51;19.30;99.90
18073;DHT22;9161;47.348;9.648;2022-08-16T22:12:43;19.10;99.90
18073;DHT22;9161;47.348;9.648;2022-08-16T22:17:28;19.40;99.90
18073;DHT22;9161;47.348;9.648;2022-08-16T22:22:12;20.40;99.90
18073;DHT22;9161;47.348;9.648;2022-08-16T22:26:56;21.10;99.60
18073;DHT22;9161;47.348;9.648;2022-08-16T22:31:42;20.90;99.90
18073;DHT22;9161;47.348;9.648;2022-08-16T22:36:26;20.40;99.90
18073;DHT22;9161;47.348;9.648;2022-08-16T22:41:10;20.10;99.90
18073;DHT22;9161;47.348;9.648;2022-08-16T22:45:53;19.70;99.90
18073;DHT22;9161;47.348;9.648;2022-08-16T22:50:38;19.50;99.90
18073;DHT22;9161;47.348;9.648;2022-08-16T22:55:23;19.40;99.90
18073;DHT22;9161;47.348;9.648;2022-08-16T23:00:09;19.30;99.90
18073;DHT22;9161;47.348;9.648;2022-08-16T23:04:53;19.10;99.90
18073;DHT22;9161;47.348;9.648;2022-08-16T23:09:38;19.10;99.90
18073;DHT22;9161;47.348;9.648;2022-08-16T23:14:22;19.10;99.90
18073;DHT22;9161;47.348;9.648;2022-08-16T23:19:09;19.00;99.90
18073;DHT22;9161;47.348;9.648;2022-08-16T23:23:53;19.00;99.90
18073;DHT22;9161;47.348;9.648;2022-08-16T23:28:38;19.00;99.90
18073;DHT22;9161;47.348;9.648;2022-08-16T23:33:23;19.00;99.90
18073;DHT22;9161;47.348;9.648;2022-08-16T23:38:08;19.00;99.90
18073;DHT22;9161;47.348;9.648;2022-08-16T23:43:13;18.80;99.90
18073;DHT22;9161;47.348;9.648;2022-08-16T23:48:00;18.70;99.90
18073;DHT22;9161;47.348;9.648;2022-08-16T23:52:59;18.60;99.90
18073;DHT22;9161;47.348;9.648;2022-08-16T23:57:44;18.40;99.90
